DURO2: Washita River Durwood, OK

Data processed at Sun Jan 14 2018 23:35


All information presented herein is the property of the government of the United States of America and may be revised or deleted at any time without prior notice.
Dissemination of this information without the expressed written consent of the Public Affairs Office, Tulsa District U.S. Army Corps of Engineers is strictly prohibited.
These data are gathered electronically and, as presented, have not undergone any form of quality control. These data are not guaranteed to be valid or correct.
Go to home page.
Go to station list.

Upstream stations:

Downstream station:
Previous Day
Next Day
Current Day
    
SHEF ID:       DURO2     Washita River near Dickson, OK
STATION TYPE:  

               PRECIP PRECIP(A)     STAGE  RIV-FLOW  BAT-LOAD
                   in        in        ft       cfs      volt
              Ccp-Rev   Ccp-Rev   Ccp-Rev   Ccp-Rev   Ccp-Rev
(US/Central)
01/12 00:00      0.00      ----      6.80       607     12.25
01/12 01:00      0.00      ----      6.81       611     12.17
01/12 02:00      0.00      ----      6.81       611     12.17
01/12 03:00      0.00      ----      6.80       641     12.17
01/12 04:00      0.00      ----      6.81       647     12.09
01/12 05:00      0.00      ----      6.80       641     12.09
01/12 06:00      0.00      ----      6.80       641     12.09
01/12 07:00      0.00      ----      6.80       641     12.09
01/12 08:00      0.00      ----      6.79       635     12.09
01/12 09:00      0.00      ----      6.81       647     13.44
01/12 10:00      0.00      ----      6.81       647     12.65
01/12 11:00      0.00      ----      6.81       647     13.13
01/12 12:00      0.00      ----      6.81       647     12.81
01/12 13:00      0.00      ----      6.79       635     12.65
01/12 14:00      0.00      ----      6.79       635     12.65
01/12 15:00      0.00      ----      6.79       635     12.65
01/12 16:00      0.00      ----      6.78       628     12.65
01/12 17:00      0.00      ----      6.75       610     12.57
01/12 18:00      0.00      ----      6.76       616     12.49
01/12 19:00      0.00      ----      6.75       610     12.49
01/12 20:00      0.00      ----      6.75       610     12.41
01/12 21:00      0.00      ----      6.75       610     12.41
01/12 22:00      0.00      ----      6.75       610     12.33
01/12 23:00      0.00      ----      6.75       610     12.33